createdAt,value
2023-01-03T00:01:50.039Z,101305.59
2023-01-03T00:04:22.008Z,101301.19
2023-01-03T00:06:53.005Z,101308.22
2023-01-03T00:09:24.124Z,101302.03
2023-01-03T00:12:11.851Z,101294.09
2023-01-03T00:14:45.221Z,101284.41
2023-01-03T00:17:15.526Z,101290.63
2023-01-03T00:19:47.226Z,101293.22
2023-01-03T00:22:17.414Z,101295.91
2023-01-03T00:24:48.156Z,101303.84
2023-01-03T00:27:18.118Z,101308.25
2023-01-03T00:29:48.281Z,101308.25
2023-01-03T00:32:17.992Z,101307.38
2023-01-03T00:34:49.616Z,101319.72
2023-01-03T00:37:19.317Z,101325.00
2023-01-03T00:39:49.303Z,101325.88
2023-01-03T00:42:18.896Z,101328.56
2023-01-03T00:44:49.097Z,101345.31
2023-01-03T00:47:18.778Z,101346.19
2023-01-03T00:49:50.399Z,101335.63
2023-01-03T00:52:20.219Z,101332.94
2023-01-03T00:54:50.367Z,101347.00
2023-01-03T00:57:20.627Z,101351.34
2023-01-03T00:59:50.824Z,101345.16
2023-01-03T01:02:20.729Z,101358.38
2023-01-03T01:04:52.980Z,101362.72
2023-01-03T01:07:22.702Z,101355.69
2023-01-03T01:09:52.930Z,101361.91
2023-01-03T01:12:22.530Z,101367.19
2023-01-03T01:14:52.647Z,101369.75
2023-01-03T01:17:23.058Z,101361.84
2023-01-03T01:19:54.740Z,101367.06
2023-01-03T01:22:24.340Z,101365.31
2023-01-03T01:24:54.395Z,101376.75
2023-01-03T01:27:24.299Z,101373.19
2023-01-03T01:29:54.671Z,101362.59
2023-01-03T01:32:24.445Z,101366.97
2023-01-03T01:34:56.122Z,101371.31
2023-01-03T01:37:25.895Z,101365.97
2023-01-03T01:39:55.993Z,101373.91
2023-01-03T01:42:42.904Z,101377.41
2023-01-03T01:45:14.823Z,101383.47
2023-01-03T01:47:48.921Z,101375.53
2023-01-03T01:50:23.035Z,101385.22
2023-01-03T01:52:55.071Z,101374.66
2023-01-03T01:55:27.661Z,101379.03
2023-01-03T01:57:57.384Z,101392.28
2023-01-03T02:00:27.349Z,101386.16
2023-01-03T02:02:57.329Z,101400.06
2023-01-03T02:05:30.122Z,101384.34
2023-01-03T02:07:59.943Z,101394.19
2023-01-03T02:10:36.082Z,101384.41
2023-01-03T02:13:09.132Z,101403.72
2023-01-03T02:15:46.684Z,101396.78
2023-01-03T02:18:25.566Z,101402.88
2023-01-03T02:21:08.020Z,101416.91
2023-01-03T02:23:52.503Z,101418.66
2023-01-03T02:26:40.583Z,101417.81
2023-01-03T02:29:37.230Z,101425.63
2023-01-03T02:32:14.103Z,101423.00
2023-01-03T02:34:48.819Z,101427.34
2023-01-03T02:37:23.413Z,101421.19
2023-01-03T02:39:55.856Z,101432.66
2023-01-03T02:42:49.072Z,101434.47
2023-01-03T02:45:21.687Z,101434.38
2023-01-03T02:47:55.892Z,101441.50
2023-01-03T02:50:27.034Z,101453.00
2023-01-03T02:52:59.513Z,101449.47
2023-01-03T02:55:31.308Z,101434.53
2023-01-03T02:58:04.644Z,101453.91
2023-01-03T03:00:36.171Z,101441.44
2023-01-03T03:03:12.654Z,101438.78
2023-01-03T03:05:47.552Z,101444.88
2023-01-03T03:08:17.634Z,101439.53
2023-01-03T03:11:05.612Z,101440.34
2023-01-03T03:13:37.930Z,101439.44
2023-01-03T03:16:09.503Z,101443.75
2023-01-03T03:18:44.743Z,101450.78
2023-01-03T03:21:33.113Z,101447.34
2023-01-03T03:24:26.321Z,101480.72
2023-01-03T03:26:57.685Z,101478.97
2023-01-03T03:29:28.765Z,101470.16
2023-01-03T03:31:58.622Z,101476.41
2023-01-03T03:34:32.559Z,101487.81
2023-01-03T03:37:04.851Z,101499.22
2023-01-03T03:39:52.473Z,101488.53
2023-01-03T03:42:41.974Z,101487.75
2023-01-03T03:45:14.542Z,101489.53
2023-01-03T03:47:47.305Z,101494.81
2023-01-03T03:50:24.131Z,101495.56
2023-01-03T03:52:56.281Z,101483.19
2023-01-03T03:55:29.562Z,101492.16
2023-01-03T03:58:01.158Z,101500.97
2023-01-03T04:00:33.473Z,101497.41
2023-01-03T04:03:04.093Z,101499.97
2023-01-03T04:05:36.831Z,101500.78
2023-01-03T04:08:06.943Z,101499.91
2023-01-03T04:10:38.202Z,101511.25
2023-01-03T04:13:07.996Z,101495.22
2023-01-03T04:15:38.162Z,101498.91
2023-01-03T04:18:07.926Z,101504.22
2023-01-03T04:20:39.502Z,101497.06
2023-01-03T04:23:09.255Z,101512.88
2023-01-03T04:25:39.273Z,101505.69
2023-01-03T04:28:09.142Z,101519.84
2023-01-03T04:30:39.291Z,101512.84
2023-01-03T04:33:08.937Z,101523.38
2023-01-03T04:35:41.113Z,101537.34
2023-01-03T04:38:10.894Z,101533.81
2023-01-03T04:40:41.077Z,101560.25
2023-01-03T04:43:36.742Z,101548.06
2023-01-03T04:46:07.015Z,101549.66
2023-01-03T04:48:36.787Z,101552.38
2023-01-03T04:51:08.414Z,101548.06
2023-01-03T04:53:38.061Z,101561.19
2023-01-03T04:56:08.280Z,101554.19
2023-01-03T04:58:37.872Z,101547.00
2023-01-03T05:01:08.918Z,101546.84
2023-01-03T05:03:39.292Z,101530.34
2023-01-03T05:06:10.931Z,101534.78
2023-01-03T05:08:40.880Z,101527.41
2023-01-03T05:11:10.911Z,101524.78
2023-01-03T05:13:40.502Z,101534.38
2023-01-03T05:16:11.611Z,101534.16
2023-01-03T05:18:42.487Z,101538.53
2023-01-03T05:21:34.412Z,101480.94
2023-01-03T05:24:21.807Z,101537.75
2023-01-03T05:26:52.451Z,101536.00
2023-01-03T05:29:23.269Z,101542.94
2023-01-03T05:31:54.096Z,101549.97
2023-01-03T05:34:24.629Z,101552.41
2023-01-03T05:36:56.177Z,101557.97
2023-01-03T05:39:25.787Z,101558.59
2023-01-03T05:42:02.037Z,101568.44
2023-01-03T05:44:33.562Z,101573.56
2023-01-03T05:47:04.821Z,101577.84
2023-01-03T05:49:35.860Z,101569.06
2023-01-03T05:52:07.573Z,101583.91
2023-01-03T05:54:37.627Z,101587.59
2023-01-03T05:57:08.061Z,101583.09
2023-01-03T05:59:37.907Z,101589.28
2023-01-03T06:02:08.414Z,101582.28
2023-01-03T06:04:38.402Z,101589.94
2023-01-03T06:07:10.030Z,101547.00
2023-01-03T06:09:39.838Z,101606.66
2023-01-03T06:12:10.068Z,101606.47
2023-01-03T06:14:39.909Z,101614.28
2023-01-03T06:17:27.169Z,101623.97
2023-01-03T06:19:56.988Z,101634.75
2023-01-03T06:22:28.549Z,101625.97
2023-01-03T06:24:58.269Z,101643.53
2023-01-03T06:27:28.557Z,101644.41
2023-01-03T06:29:59.966Z,101646.03
2023-01-03T06:32:30.150Z,101644.19
2023-01-03T06:35:00.025Z,101651.09
2023-01-03T06:37:31.556Z,101644.28
2023-01-03T06:40:02.539Z,101661.06
2023-01-03T06:42:46.242Z,101649.50
2023-01-03T06:45:33.698Z,101662.72
2023-01-03T06:48:22.414Z,101667.88
2023-01-03T06:51:09.906Z,101670.53
2023-01-03T06:53:42.857Z,101672.47
2023-01-03T06:56:13.159Z,101670.53
2023-01-03T06:58:43.868Z,101678.69
2023-01-03T07:01:15.685Z,101685.72
2023-01-03T07:03:46.289Z,101690.13
2023-01-03T07:06:16.139Z,101690.25
2023-01-03T07:08:48.653Z,101696.28
2023-01-03T07:11:18.611Z,101686.59
2023-01-03T07:13:59.694Z,101695.16
2023-01-03T07:16:30.624Z,101682.69
2023-01-03T07:19:02.354Z,101688.88
2023-01-03T07:21:32.949Z,101700.38
2023-01-03T07:24:06.008Z,101702.19
2023-01-03T07:26:36.463Z,101712.72
2023-01-03T07:29:07.681Z,101696.84
2023-01-03T07:31:40.622Z,101700.25
2023-01-03T07:34:11.075Z,101719.53
2023-01-03T07:36:40.844Z,101720.38
2023-01-03T07:39:12.479Z,101726.56
2023-01-03T07:41:59.198Z,101710.06
2023-01-03T07:44:29.694Z,101726.69
2023-01-03T07:46:59.489Z,101727.25
2023-01-03T07:49:29.716Z,101729.94
2023-01-03T07:51:59.774Z,101733.63
2023-01-03T07:54:31.380Z,101727.69
2023-01-03T07:57:01.249Z,101726.09
2023-01-03T07:59:31.574Z,101739.25
2023-01-03T08:02:01.601Z,101744.53
2023-01-03T08:04:32.081Z,101747.13
2023-01-03T08:07:01.970Z,101751.44
2023-01-03T08:09:51.791Z,101748.69
2023-01-03T08:12:38.868Z,101747.03
2023-01-03T08:15:10.380Z,101760.22
2023-01-03T08:20:23.996Z,101759.47
2023-01-03T08:22:53.877Z,101762.94
2023-01-03T08:25:25.536Z,101771.81
2023-01-03T08:27:58.849Z,101770.09
2023-01-03T08:30:29.891Z,101786.00
2023-01-03T08:33:02.655Z,101793.00
2023-01-03T08:35:35.681Z,101786.13
2023-01-03T08:38:06.167Z,101786.94
2023-01-03T08:40:42.120Z,101803.75
2023-01-03T08:43:13.631Z,101797.81
2023-01-03T08:45:43.671Z,101803.03
2023-01-03T08:48:13.541Z,101803.09
2023-01-03T08:50:43.741Z,101811.16
2023-01-03T08:53:13.509Z,101804.03
2023-01-03T08:55:45.639Z,101815.41
2023-01-03T08:58:15.350Z,101818.94
2023-01-03T09:00:45.481Z,101813.66
2023-01-03T09:03:15.422Z,101830.38
2023-01-03T09:05:45.669Z,101825.97
2023-01-03T09:08:16.348Z,101819.84
2023-01-03T09:10:48.632Z,101833.13
2023-01-03T09:13:18.258Z,101833.97
2023-01-03T09:15:48.433Z,101831.38
2023-01-03T09:18:18.117Z,101836.72
2023-01-03T09:20:52.658Z,101838.59
2023-01-03T09:23:22.329Z,101835.97
2023-01-03T09:25:54.253Z,101835.31
2023-01-03T09:28:24.268Z,101826.22
2023-01-03T09:30:55.598Z,101847.91
2023-01-03T09:33:25.564Z,101847.78
2023-01-03T09:35:56.155Z,101852.22
2023-01-03T09:38:25.928Z,101864.44
2023-01-03T09:41:03.057Z,101850.41
2023-01-03T09:43:37.276Z,101842.59
2023-01-03T09:46:07.478Z,101850.59
2023-01-03T09:48:39.065Z,101848.81
2023-01-03T09:51:30.929Z,101855.03
2023-01-03T09:54:19.568Z,101850.72
2023-01-03T09:57:26.302Z,101863.28
2023-01-03T10:00:15.765Z,101867.47
2023-01-03T10:03:15.942Z,101877.03
2023-01-03T10:05:51.602Z,101888.19
2023-01-03T10:08:47.669Z,101888.19
2023-01-03T10:11:24.899Z,101882.00
2023-01-03T10:14:03.464Z,101890.59
2023-01-03T10:16:41.986Z,101888.69
2023-01-03T10:19:21.307Z,101892.38
2023-01-03T10:21:54.130Z,101887.84
2023-01-03T10:24:26.037Z,101886.97
2023-01-03T10:26:57.155Z,101877.09
2023-01-03T10:29:28.968Z,101884.88
2023-01-03T10:32:05.916Z,101884.78
2023-01-03T10:34:36.016Z,101884.72
2023-01-03T10:37:17.156Z,101888.25
2023-01-03T10:39:47.687Z,101886.53
2023-01-03T10:42:19.235Z,101884.72
2023-01-03T10:45:02.085Z,101896.16
2023-01-03T10:47:31.965Z,101888.28
2023-01-03T10:50:02.267Z,101886.59
2023-01-03T10:52:33.036Z,101890.22
2023-01-03T10:55:04.926Z,101910.53
2023-01-03T10:57:42.995Z,101892.22
2023-01-03T11:00:28.299Z,101901.03
2023-01-03T11:03:03.297Z,101895.84
2023-01-03T11:05:33.806Z,101894.00
2023-01-03T11:08:04.146Z,101907.16
2023-01-03T11:10:37.786Z,101910.50
2023-01-03T11:13:23.137Z,101906.03
2023-01-03T11:15:58.796Z,101911.25
2023-01-03T11:18:29.256Z,101907.03
2023-01-03T11:21:05.893Z,101914.19
2023-01-03T11:23:51.954Z,101911.63
2023-01-03T11:26:28.325Z,101922.94
2023-01-03T11:29:03.727Z,101923.69
2023-01-03T11:31:44.035Z,101933.28
2023-01-03T11:34:24.682Z,101936.72
2023-01-03T11:36:59.455Z,101936.41
2023-01-03T11:39:35.652Z,101940.66
2023-01-03T11:42:16.252Z,101945.13
2023-01-03T11:45:00.983Z,101945.81
2023-01-03T11:47:38.135Z,101941.13
2023-01-03T11:50:22.442Z,101951.50
2023-01-03T11:52:57.984Z,101957.50
2023-01-03T11:55:41.487Z,101963.50
2023-01-03T11:58:24.975Z,101961.47
2023-01-03T12:01:02.060Z,101958.75
2023-01-03T12:03:43.561Z,101948.34
2023-01-03T12:06:18.210Z,101942.31
2023-01-03T12:08:59.413Z,101952.19
2023-01-03T12:11:43.062Z,101958.34
2023-01-03T12:14:16.847Z,101952.31
2023-01-03T12:16:49.416Z,101956.03
2023-01-03T12:19:26.657Z,101970.41
2023-01-03T12:22:00.554Z,101962.47
2023-01-03T12:24:34.734Z,101959.81
2023-01-03T12:27:06.605Z,101962.44
2023-01-03T12:29:45.628Z,101965.16
2023-01-03T12:32:18.069Z,101960.72
2023-01-03T12:34:53.505Z,101959.00
2023-01-03T12:37:24.987Z,101975.72
2023-01-03T12:39:56.920Z,101976.72
2023-01-03T12:42:32.884Z,101977.66
2023-01-03T12:45:15.211Z,101985.63
2023-01-03T12:47:48.295Z,101971.47
2023-01-03T12:50:23.143Z,101983.78
2023-01-03T12:52:56.250Z,101980.41
2023-01-03T12:55:32.180Z,101984.69
2023-01-03T12:58:09.921Z,101979.41
2023-01-03T13:00:54.854Z,101975.88
2023-01-03T13:03:27.931Z,101978.66
2023-01-03T13:06:02.469Z,101983.09
2023-01-03T13:08:35.586Z,101986.41
2023-01-03T13:11:08.639Z,101982.88
2023-01-03T13:13:38.357Z,101992.44
2023-01-03T13:16:23.157Z,101984.53
2023-01-03T13:18:52.938Z,101994.31
2023-01-03T13:21:41.700Z,101995.22
2023-01-03T13:24:12.959Z,102004.88
2023-01-03T13:27:12.149Z,102004.16
2023-01-03T13:29:46.263Z,102009.22
2023-01-03T13:32:17.899Z,102011.00
2023-01-03T13:35:08.170Z,102022.28
2023-01-03T13:37:45.459Z,102028.56
2023-01-03T13:40:34.759Z,102014.53
2023-01-03T13:43:40.607Z,102018.06
2023-01-03T13:46:20.664Z,102026.59
2023-01-03T13:48:55.842Z,102024.72
2023-01-03T13:51:33.915Z,102026.50
2023-01-03T13:54:06.194Z,102024.69
2023-01-03T13:56:50.661Z,102031.56
2023-01-03T13:59:28.671Z,102038.31
2023-01-03T14:02:03.028Z,102046.03
2023-01-03T14:04:55.429Z,102050.28
2023-01-03T14:07:43.198Z,102056.31
2023-01-03T14:10:22.689Z,102051.03
2023-01-03T14:13:22.648Z,102060.50
2023-01-03T14:16:08.810Z,102055.06
2023-01-03T14:18:40.245Z,102054.09
2023-01-03T14:21:15.549Z,102051.22
2023-01-03T14:23:59.756Z,102000.94
2023-01-03T14:26:32.170Z,102052.75
2023-01-03T14:29:02.059Z,102062.28
2023-01-03T14:31:33.799Z,102058.63
2023-01-03T14:34:05.892Z,102059.41
2023-01-03T14:36:46.426Z,102061.91
2023-01-03T14:39:22.815Z,102064.84
2023-01-03T14:41:53.058Z,102071.03
2023-01-03T14:44:22.778Z,102074.59
2023-01-03T14:46:55.239Z,102079.81
2023-01-03T14:49:26.248Z,102083.31
2023-01-03T14:51:59.898Z,102088.47
2023-01-03T14:54:30.656Z,102021.38
2023-01-03T14:57:01.664Z,102084.84
2023-01-03T14:59:31.880Z,102094.44
2023-01-03T15:02:03.812Z,102094.59
2023-01-03T15:04:33.661Z,102101.78
2023-01-03T15:07:11.354Z,102103.34
2023-01-03T15:09:44.006Z,102104.94
2023-01-03T15:12:15.562Z,102108.34
2023-01-03T15:14:45.234Z,102104.84
2023-01-03T15:17:19.723Z,102100.31
2023-01-03T15:19:52.590Z,102094.09
2023-01-03T15:22:25.380Z,102099.94
2023-01-03T15:25:04.431Z,102101.53
2023-01-03T15:27:44.325Z,102094.59
2023-01-03T15:30:24.943Z,102094.53
2023-01-03T15:33:03.189Z,102103.34
2023-01-03T15:35:38.114Z,102113.03
2023-01-03T15:38:10.271Z,102109.53
2023-01-03T15:40:40.927Z,102112.00
2023-01-03T15:43:22.309Z,102112.88
2023-01-03T15:46:00.464Z,102115.41
2023-01-03T15:48:35.445Z,102113.66
2023-01-03T15:51:06.346Z,102114.81
2023-01-03T15:53:43.685Z,102114.88
2023-01-03T15:56:20.462Z,102120.22
2023-01-03T15:58:54.365Z,102120.91
2023-01-03T16:01:27.306Z,102128.88
2023-01-03T16:04:01.634Z,102134.06
2023-01-03T16:06:34.550Z,102136.63
2023-01-03T16:09:04.673Z,102135.69
2023-01-03T16:11:35.419Z,102144.44
2023-01-03T16:14:07.374Z,102145.50
2023-01-03T16:16:40.149Z,102145.69
2023-01-03T16:19:21.276Z,102151.03
2023-01-03T16:22:24.313Z,102144.63
2023-01-03T16:24:44.817Z,102156.66
2023-01-03T16:27:16.165Z,102161.13
2023-01-03T16:29:46.873Z,102158.44
2023-01-03T16:32:20.671Z,102168.13
2023-01-03T16:34:53.065Z,102165.44
2023-01-03T16:37:22.953Z,102167.19
2023-01-03T16:39:56.707Z,102166.34
2023-01-03T16:42:29.667Z,102163.56
2023-01-03T16:45:01.920Z,102166.03
2023-01-03T16:47:36.367Z,102162.47
2023-01-03T16:50:10.716Z,102164.16
2023-01-03T16:52:42.215Z,102172.13
2023-01-03T16:55:17.451Z,102169.38
2023-01-03T16:57:54.201Z,102183.94
2023-01-03T17:00:31.041Z,102181.97
2023-01-03T17:03:03.455Z,102180.00
2023-01-03T17:05:39.543Z,102175.19
2023-01-03T17:08:17.241Z,102181.88
2023-01-03T17:10:50.000Z,102193.97
2023-01-03T17:13:25.422Z,102195.69
2023-01-03T17:15:59.544Z,102196.50
2023-01-03T17:18:32.381Z,102194.41
2023-01-03T17:21:29.191Z,102197.16
2023-01-03T17:24:04.977Z,102204.91
2023-01-03T17:26:39.915Z,102205.72
2023-01-03T17:29:14.994Z,102207.38
2023-01-03T17:31:46.623Z,102199.44
2023-01-03T17:34:23.494Z,102201.31
2023-01-03T17:37:02.797Z,102201.00
2023-01-03T17:39:38.704Z,102199.13
2023-01-03T17:42:17.106Z,102205.47
2023-01-03T17:45:10.249Z,102200.06
2023-01-03T17:48:00.694Z,102204.09
2023-01-03T17:50:33.773Z,102211.84
2023-01-03T17:53:08.574Z,102212.06
2023-01-03T17:55:40.672Z,102219.28
2023-01-03T17:58:18.174Z,102216.34
2023-01-03T18:00:48.045Z,102221.34
2023-01-03T18:03:18.249Z,102221.59
2023-01-03T18:05:49.997Z,102223.25
2023-01-03T18:08:22.972Z,102227.59
2023-01-03T18:10:54.607Z,102227.41
2023-01-03T18:13:27.227Z,102236.09
2023-01-03T18:15:58.676Z,102228.81
2023-01-03T18:18:29.883Z,102241.06
2023-01-03T18:21:00.134Z,102246.16
2023-01-03T18:23:33.020Z,102240.03
2023-01-03T18:26:04.675Z,102250.63
2023-01-03T18:28:35.013Z,102252.16
2023-01-03T18:31:06.430Z,102251.91
2023-01-03T18:33:36.674Z,102248.22
2023-01-03T18:36:07.636Z,102244.25
2023-01-03T18:38:41.752Z,102245.69
2023-01-03T18:41:19.185Z,102253.94
2023-01-03T18:43:49.261Z,102262.22
2023-01-03T18:46:19.866Z,102250.72
2023-01-03T18:48:50.067Z,102249.81
2023-01-03T18:51:20.895Z,102258.44
2023-01-03T18:53:54.971Z,102248.91
2023-01-03T18:56:37.173Z,102246.41
2023-01-03T18:59:09.712Z,102243.66
2023-01-03T19:01:40.027Z,102234.66
2023-01-03T19:04:10.482Z,102236.28
2023-01-03T19:06:43.354Z,102237.34
2023-01-03T19:09:17.669Z,102240.16
2023-01-03T19:11:47.486Z,102235.22
2023-01-03T19:14:17.590Z,102236.16
2023-01-03T19:16:47.474Z,102237.94
2023-01-03T19:19:17.565Z,102246.81
2023-01-03T19:21:48.077Z,102247.03
2023-01-03T19:24:24.272Z,102257.78
2023-01-03T19:26:56.198Z,102264.31
2023-01-03T19:29:28.732Z,102268.91
2023-01-03T19:31:58.847Z,102261.16
2023-01-03T19:34:29.223Z,102264.00
2023-01-03T19:36:59.333Z,102268.66
2023-01-03T19:39:36.871Z,102267.97
2023-01-03T19:42:25.859Z,102273.50
2023-01-03T19:44:56.313Z,102273.81
2023-01-03T19:47:26.242Z,102271.25
2023-01-03T19:49:56.339Z,102261.69
2023-01-03T19:52:26.254Z,102269.59
2023-01-03T19:54:57.844Z,102258.03
2023-01-03T19:57:31.668Z,102255.41
2023-01-03T20:00:02.481Z,102254.44
2023-01-03T20:02:40.126Z,102253.34
2023-01-03T20:05:14.932Z,102262.13
2023-01-03T20:07:44.979Z,102265.53
2023-01-03T20:10:17.784Z,102269.91
2023-01-03T20:12:48.339Z,102264.56
2023-01-03T20:15:25.908Z,102275.06
2023-01-03T20:17:56.210Z,102270.66
2023-01-03T20:20:29.293Z,102274.31
2023-01-03T20:23:06.367Z,102274.31
2023-01-03T20:25:39.704Z,102281.28
2023-01-03T20:28:19.147Z,102285.72
2023-01-03T20:30:50.778Z,102291.81
2023-01-03T20:33:21.817Z,102292.69
2023-01-03T20:36:16.107Z,102291.72
2023-01-03T20:38:48.739Z,102292.75
2023-01-03T20:41:22.592Z,102291.00
2023-01-03T20:43:54.755Z,102286.53
2023-01-03T20:46:27.018Z,102289.19
2023-01-03T20:49:00.990Z,102283.13
2023-01-03T20:51:33.444Z,102285.06
2023-01-03T20:54:04.614Z,102285.22
2023-01-03T20:56:40.640Z,102286.25
2023-01-03T20:59:16.530Z,102288.16
2023-01-03T21:01:50.564Z,102290.91
2023-01-03T21:04:22.803Z,102286.47
2023-01-03T21:06:55.721Z,102295.44
2023-01-03T21:09:26.109Z,102291.59
2023-01-03T21:12:00.483Z,102292.19
2023-01-03T21:14:32.681Z,102295.38
2023-01-03T21:17:04.757Z,102282.84
2023-01-03T21:19:37.409Z,102287.84
2023-01-03T21:22:19.999Z,102296.41
2023-01-03T21:24:57.225Z,102304.19
2023-01-03T21:27:29.823Z,102294.03
2023-01-03T21:30:01.300Z,102299.13
2023-01-03T21:32:32.662Z,102299.38
2023-01-03T21:35:03.485Z,102306.06
2023-01-03T21:37:34.108Z,102306.50
2023-01-03T21:40:04.991Z,102317.72
2023-01-03T21:42:59.915Z,102321.19
2023-01-03T21:45:34.817Z,102322.34
2023-01-03T21:48:06.789Z,102320.03
2023-01-03T21:50:39.612Z,102320.03
2023-01-03T21:53:13.752Z,102316.50
2023-01-03T21:55:44.010Z,102318.09
2023-01-03T21:58:16.867Z,102325.38
2023-01-03T22:00:48.354Z,102321.50
2023-01-03T22:03:36.024Z,102324.03
2023-01-03T22:06:06.679Z,102327.44
2023-01-03T22:08:36.869Z,102330.88
2023-01-03T22:11:07.358Z,102329.72
2023-01-03T22:13:38.868Z,102327.53
2023-01-03T22:16:09.391Z,102326.72
2023-01-03T22:18:39.425Z,102335.34
2023-01-03T22:21:10.514Z,102338.91
2023-01-03T22:23:41.034Z,102330.94
2023-01-03T22:26:12.574Z,102343.25
2023-01-03T22:28:45.037Z,102344.50
2023-01-03T22:31:16.558Z,102345.50
2023-01-03T22:33:46.924Z,102341.00
2023-01-03T22:36:17.005Z,102339.47
2023-01-03T22:38:47.105Z,102336.13
2023-01-03T22:41:18.081Z,102333.69
2023-01-03T22:43:49.677Z,102334.66
2023-01-03T22:46:19.454Z,102344.50
2023-01-03T22:48:49.693Z,102338.78
2023-01-03T22:51:19.479Z,102336.44
2023-01-03T22:53:49.665Z,102330.16
2023-01-03T22:56:20.323Z,102327.72
2023-01-03T22:58:51.879Z,102332.91
2023-01-03T23:01:28.023Z,102330.34
2023-01-03T23:04:01.509Z,102335.19
2023-01-03T23:06:32.385Z,102339.41
2023-01-03T23:09:02.985Z,102339.25
2023-01-03T23:11:51.043Z,102351.41
2023-01-03T23:14:23.811Z,102350.59
2023-01-03T23:16:56.054Z,102335.91
2023-01-03T23:19:27.230Z,102342.25
2023-01-03T23:21:58.579Z,102342.78
2023-01-03T23:24:28.688Z,102346.94
2023-01-03T23:27:00.385Z,102339.69
2023-01-03T23:29:31.945Z,102338.53
2023-01-03T23:32:01.928Z,102344.38
2023-01-03T23:34:32.211Z,102353.16
2023-01-03T23:37:01.881Z,102350.75
2023-01-03T23:39:31.917Z,102345.34
2023-01-03T23:42:01.603Z,102340.94
2023-01-03T23:44:33.682Z,102349.41
2023-01-03T23:47:09.329Z,102342.53
2023-01-03T23:49:41.673Z,102337.94
2023-01-03T23:52:11.393Z,102336.38
2023-01-03T23:54:41.430Z,102328.00
2023-01-03T23:57:11.025Z,102332.59
2023-01-03T23:59:42.748Z,102340.91
